createdAt,value
2023-04-12T00:01:34.466Z,9.20
2023-04-12T00:04:27.387Z,9.20
2023-04-12T00:07:18.371Z,9.20
2023-04-12T00:10:09.339Z,9.20
2023-04-12T00:12:57.823Z,9.20
2023-04-12T00:15:46.645Z,9.20
2023-04-12T00:18:35.027Z,9.20
2023-04-12T00:21:23.702Z,9.20
2023-04-12T00:24:13.635Z,9.20
2023-04-12T00:27:02.475Z,9.10
2023-04-12T00:29:50.908Z,9.10
2023-04-12T00:32:39.327Z,9.10
2023-04-12T00:35:27.818Z,9.10
2023-04-12T00:38:17.184Z,9.10
2023-04-12T00:41:07.936Z,9.10
2023-04-12T00:43:56.893Z,9.10
2023-04-12T00:46:46.284Z,9.10
2023-04-12T00:49:35.984Z,9.10
2023-04-12T00:52:24.502Z,9.10
2023-04-12T00:55:12.935Z,9.10
2023-04-12T00:58:03.453Z,9.10
2023-04-12T01:00:52.993Z,9.10
2023-04-12T01:03:43.178Z,9.10
2023-04-12T01:06:52.916Z,9.20
2023-04-12T01:09:54.221Z,9.10
2023-04-12T01:12:54.677Z,9.10
2023-04-12T01:15:56.128Z,9.10
2023-04-12T01:18:51.871Z,9.20
2023-04-12T01:21:54.753Z,9.20
2023-04-12T01:25:04.607Z,9.20
2023-04-12T01:27:58.735Z,9.10
2023-04-12T01:30:51.460Z,9.20
2023-04-12T01:33:46.990Z,9.20
2023-04-12T01:36:40.257Z,9.20
2023-04-12T01:39:30.825Z,9.20
2023-04-12T01:42:20.513Z,9.20
2023-04-12T01:45:12.347Z,9.30
2023-04-12T01:48:01.819Z,9.30
2023-04-12T01:51:05.515Z,9.30
2023-04-12T01:54:00.934Z,9.30
2023-04-12T01:56:57.816Z,9.40
2023-04-12T01:59:48.910Z,9.40
2023-04-12T02:02:39.908Z,9.40
2023-04-12T02:05:28.904Z,9.50
2023-04-12T02:08:18.133Z,9.50
2023-04-12T02:11:10.379Z,9.50
2023-04-12T02:13:59.047Z,9.50
2023-04-12T02:16:50.575Z,9.50
2023-04-12T02:19:40.358Z,9.50
2023-04-12T02:22:28.933Z,9.50
2023-04-12T02:25:18.631Z,9.50
2023-04-12T02:28:07.890Z,9.50
2023-04-12T02:30:56.665Z,9.50
2023-04-12T02:33:45.838Z,9.40
2023-04-12T02:36:38.001Z,9.50
2023-04-12T02:39:29.177Z,9.40
2023-04-12T02:42:18.832Z,9.40
2023-04-12T02:45:11.570Z,9.40
2023-04-12T02:48:01.589Z,9.40
2023-04-12T02:50:51.384Z,9.40
2023-04-12T02:53:45.261Z,9.40
2023-04-12T02:56:37.784Z,9.40
2023-04-12T02:59:41.286Z,9.30
2023-04-12T03:02:56.094Z,9.30
2023-04-12T03:05:48.184Z,9.30
2023-04-12T03:08:39.051Z,9.30
2023-04-12T03:11:28.803Z,9.30
2023-04-12T03:14:18.280Z,9.30
2023-04-12T03:17:06.740Z,9.30
2023-04-12T03:19:58.147Z,9.20
2023-04-12T03:22:47.641Z,9.20
2023-04-12T03:25:36.898Z,9.20
2023-04-12T03:28:45.752Z,9.10
2023-04-12T03:31:34.828Z,9.10
2023-04-12T03:34:28.574Z,9.10
2023-04-12T03:37:17.112Z,9.10
2023-04-12T03:40:07.386Z,9.10
2023-04-12T03:42:55.860Z,9.00
2023-04-12T03:45:45.776Z,9.00
2023-04-12T03:48:34.300Z,9.00
2023-04-12T03:51:26.613Z,9.00
2023-04-12T03:54:19.675Z,9.00
2023-04-12T03:57:17.966Z,9.00
2023-04-12T04:00:11.482Z,8.90
2023-04-12T04:03:19.867Z,8.90
2023-04-12T04:06:20.676Z,8.90
2023-04-12T04:09:09.166Z,8.90
2023-04-12T04:11:59.746Z,8.90
2023-04-12T04:14:48.254Z,8.90
2023-04-12T04:17:48.189Z,8.80
2023-04-12T04:20:40.422Z,8.90
2023-04-12T04:23:30.594Z,8.80
2023-04-12T04:26:33.070Z,8.80
2023-04-12T04:29:30.090Z,8.80
2023-04-12T04:32:19.976Z,8.80
2023-04-12T04:35:09.587Z,8.80
2023-04-12T04:38:12.031Z,8.80
2023-04-12T04:41:02.298Z,8.80
2023-04-12T04:44:09.401Z,8.80
2023-04-12T04:47:00.752Z,8.80
2023-04-12T04:49:49.696Z,8.70
2023-04-12T04:52:48.198Z,8.70
2023-04-12T04:55:38.192Z,8.70
2023-04-12T04:58:26.888Z,8.70
2023-04-12T05:01:17.035Z,8.70
2023-04-12T05:04:07.830Z,8.70
2023-04-12T05:06:56.415Z,8.70
2023-04-12T05:09:47.541Z,8.70
2023-04-12T05:12:37.806Z,8.70
2023-04-12T05:15:26.200Z,8.60
2023-04-12T05:18:15.648Z,8.60
2023-04-12T05:21:05.322Z,8.60
2023-04-12T05:23:53.784Z,8.60
2023-04-12T05:26:42.427Z,8.60
2023-04-12T05:29:36.483Z,8.60
2023-04-12T05:32:27.371Z,8.60
2023-04-12T05:35:16.582Z,8.60
2023-04-12T05:38:06.263Z,8.60
2023-04-12T05:40:55.217Z,8.60
2023-04-12T05:43:45.393Z,8.60
2023-04-12T05:46:36.215Z,8.60
2023-04-12T05:49:25.753Z,8.60
2023-04-12T05:52:14.281Z,8.60
2023-04-12T05:55:03.134Z,8.60
2023-04-12T05:57:52.259Z,8.60
2023-04-12T06:00:43.013Z,8.50
2023-04-12T06:03:34.028Z,8.50
2023-04-12T06:06:31.476Z,8.50
2023-04-12T06:09:20.820Z,8.50
2023-04-12T06:12:09.289Z,8.50
2023-04-12T06:14:57.845Z,8.50
2023-04-12T06:17:46.822Z,8.50
2023-04-12T06:20:39.884Z,8.50
2023-04-12T06:23:28.286Z,8.50
2023-04-12T06:26:18.459Z,8.50
2023-04-12T06:29:07.173Z,8.50
2023-04-12T06:31:56.091Z,8.50
2023-04-12T06:34:44.701Z,8.40
2023-04-12T06:37:37.256Z,8.40
2023-04-12T06:40:25.808Z,8.40
2023-04-12T06:43:14.283Z,8.40
2023-04-12T06:46:03.379Z,8.40
2023-04-12T06:48:51.791Z,8.40
2023-04-12T06:51:40.263Z,8.40
2023-04-12T06:54:30.173Z,8.40
2023-04-12T06:57:18.587Z,8.40
2023-04-12T07:00:08.944Z,8.40
2023-04-12T07:02:57.467Z,8.50
2023-04-12T07:05:47.329Z,8.50
2023-04-12T07:08:37.335Z,8.50
2023-04-12T07:11:28.164Z,8.50
2023-04-12T07:14:16.658Z,8.50
2023-04-12T07:17:05.128Z,8.50
2023-04-12T07:19:53.875Z,8.50
2023-04-12T07:22:42.304Z,8.50
2023-04-12T07:25:30.825Z,8.50
2023-04-12T07:28:21.011Z,8.50
2023-04-12T07:31:09.764Z,8.60
2023-04-12T07:33:58.299Z,8.60
2023-04-12T07:36:46.834Z,8.60
2023-04-12T07:39:36.081Z,8.60
2023-04-12T07:42:24.500Z,8.60
2023-04-12T07:45:14.369Z,8.60
2023-04-12T07:48:03.579Z,8.70
2023-04-12T07:50:52.021Z,8.70
2023-04-12T07:53:41.969Z,8.60
2023-04-12T07:56:30.379Z,8.70
2023-04-12T07:59:18.776Z,8.70
2023-04-12T08:02:08.732Z,8.70
2023-04-12T08:04:57.506Z,8.70
2023-04-12T08:07:45.944Z,8.70
2023-04-12T08:10:35.622Z,8.80
2023-04-12T08:13:24.153Z,8.80
2023-04-12T08:16:13.175Z,8.80
2023-04-12T08:19:03.126Z,8.80
2023-04-12T08:21:51.545Z,8.90
2023-04-12T08:24:39.928Z,8.90
2023-04-12T08:27:31.063Z,9.00
2023-04-12T08:30:20.276Z,9.00
2023-04-12T08:33:08.698Z,9.00
2023-04-12T08:35:59.387Z,9.10
2023-04-12T08:38:52.286Z,9.10
2023-04-12T08:41:41.005Z,9.10
2023-04-12T08:44:37.848Z,9.10
2023-04-12T08:47:26.416Z,9.10
2023-04-12T08:50:15.362Z,9.20
2023-04-12T08:53:05.177Z,9.10
2023-04-12T08:55:53.883Z,9.10
2023-04-12T08:58:46.671Z,9.20
2023-04-12T09:01:35.231Z,9.20
2023-04-12T09:04:24.153Z,9.20
2023-04-12T09:07:12.602Z,9.20
2023-04-12T09:10:02.538Z,9.30
2023-04-12T09:12:52.428Z,9.30
2023-04-12T09:15:50.775Z,9.40
2023-04-12T09:18:50.283Z,9.40
2023-04-12T09:21:53.333Z,9.40
2023-04-12T09:24:48.584Z,9.50
2023-04-12T09:27:49.817Z,9.50
2023-04-12T09:30:43.235Z,9.50
2023-04-12T09:33:37.435Z,9.50
2023-04-12T09:36:39.608Z,9.50
2023-04-12T09:39:35.810Z,9.50
2023-04-12T09:42:33.427Z,9.60
2023-04-12T09:45:27.983Z,9.60
2023-04-12T09:48:21.972Z,9.60
2023-04-12T09:51:10.717Z,9.70
2023-04-12T09:54:02.324Z,9.70
2023-04-12T09:56:52.106Z,9.70
2023-04-12T09:59:42.777Z,9.70
2023-04-12T10:02:33.302Z,9.80
2023-04-12T10:05:26.345Z,9.80
2023-04-12T10:08:17.758Z,9.90
2023-04-12T10:11:07.620Z,9.90
2023-04-12T10:14:00.678Z,9.90
2023-04-12T10:16:50.363Z,10.00
2023-04-12T10:19:41.141Z,10.00
2023-04-12T10:22:30.361Z,10.10
2023-04-12T10:25:21.585Z,10.10
2023-04-12T10:28:18.724Z,10.20
2023-04-12T10:31:29.060Z,10.20
2023-04-12T10:34:17.545Z,10.30
2023-04-12T10:37:07.853Z,10.40
2023-04-12T10:39:56.717Z,10.50
2023-04-12T10:42:45.341Z,10.50
2023-04-12T10:45:38.968Z,10.60
2023-04-12T10:48:32.871Z,10.70
2023-04-12T10:51:25.341Z,10.80
2023-04-12T10:54:36.244Z,10.80
2023-04-12T10:57:47.722Z,10.90
2023-04-12T11:01:13.207Z,11.00
2023-04-12T11:04:20.460Z,11.00
2023-04-12T11:07:40.927Z,11.10
2023-04-12T11:11:05.730Z,11.10
2023-04-12T11:13:59.972Z,11.20
2023-04-12T11:17:23.649Z,11.30
2023-04-12T11:20:13.792Z,11.40
2023-04-12T11:23:05.783Z,11.50
2023-04-12T11:25:54.691Z,11.60
2023-04-12T11:28:44.670Z,11.70
2023-04-12T11:31:33.154Z,11.70
2023-04-12T11:34:21.715Z,11.80
2023-04-12T11:37:11.716Z,11.80
2023-04-12T11:40:00.456Z,11.90
2023-04-12T11:42:49.447Z,11.90
2023-04-12T11:45:39.290Z,12.00
2023-04-12T11:48:29.113Z,12.00
2023-04-12T11:51:21.736Z,12.10
2023-04-12T11:54:12.355Z,12.10
2023-04-12T11:57:04.247Z,12.00
2023-04-12T11:59:54.152Z,11.90
2023-04-12T12:02:55.985Z,11.80
2023-04-12T12:05:53.002Z,11.70
2023-04-12T12:08:41.771Z,11.60
2023-04-12T12:11:30.974Z,11.50
2023-04-12T12:14:25.133Z,11.40
2023-04-12T12:17:17.186Z,11.30
2023-04-12T12:20:20.286Z,11.20
2023-04-12T12:23:08.983Z,11.20
2023-04-12T12:26:14.232Z,11.20
2023-04-12T12:29:05.960Z,11.20
2023-04-12T12:31:54.529Z,11.20
2023-04-12T12:34:43.243Z,11.30
2023-04-12T12:37:33.145Z,11.30
2023-04-12T12:40:32.410Z,11.30
2023-04-12T12:43:21.866Z,11.40
2023-04-12T12:46:10.350Z,11.50
2023-04-12T12:48:58.834Z,11.60
2023-04-12T12:51:48.574Z,11.70
2023-04-12T12:54:41.433Z,11.80
2023-04-12T12:57:30.214Z,11.90
2023-04-12T13:00:21.074Z,12.00
2023-04-12T13:03:09.647Z,12.10
2023-04-12T13:05:58.728Z,12.20
2023-04-12T13:08:47.145Z,12.30
2023-04-12T13:11:36.990Z,12.50
2023-04-12T13:14:25.632Z,12.60
2023-04-12T13:17:14.174Z,12.70
2023-04-12T13:20:04.185Z,12.80
2023-04-12T13:22:53.052Z,12.90
2023-04-12T13:25:41.490Z,13.00
2023-04-12T13:28:31.454Z,13.20
2023-04-12T13:31:19.965Z,13.20
2023-04-12T13:34:08.395Z,13.30
2023-04-12T13:36:57.004Z,13.40
2023-04-12T13:39:45.850Z,13.60
2023-04-12T13:42:34.551Z,13.70
2023-04-12T13:45:24.728Z,13.80
2023-04-12T13:48:13.169Z,14.00
2023-04-12T13:51:01.673Z,14.10
2023-04-12T13:53:50.220Z,14.30
2023-04-12T13:56:38.673Z,14.40
2023-04-12T13:59:27.513Z,14.60
2023-04-12T14:02:17.430Z,14.70
2023-04-12T14:05:07.096Z,14.80
2023-04-12T14:07:55.916Z,14.90
2023-04-12T14:10:44.578Z,15.00
2023-04-12T14:13:33.010Z,15.10
2023-04-12T14:16:21.530Z,15.20
2023-04-12T14:19:11.460Z,15.30
2023-04-12T14:21:59.938Z,15.40
2023-04-12T14:24:48.672Z,15.40
2023-04-12T14:27:39.340Z,15.40
2023-04-12T14:30:28.112Z,15.30
2023-04-12T14:33:17.034Z,15.30
2023-04-12T14:36:08.348Z,15.30
2023-04-12T14:38:57.215Z,15.30
2023-04-12T14:41:45.876Z,15.20
2023-04-12T14:44:37.725Z,14.90
2023-04-12T14:47:26.186Z,14.60
2023-04-12T14:50:16.113Z,14.30
2023-04-12T14:53:08.019Z,14.00
2023-04-12T14:56:02.584Z,13.70
2023-04-12T14:58:53.642Z,13.50
2023-04-12T15:01:42.951Z,13.30
2023-04-12T15:04:31.541Z,13.10
2023-04-12T15:07:20.555Z,12.90
2023-04-12T15:10:14.271Z,12.70
2023-04-12T15:13:02.832Z,12.60
2023-04-12T15:15:51.372Z,12.40
2023-04-12T15:18:41.809Z,12.30
2023-04-12T15:21:31.201Z,12.20
2023-04-12T15:24:22.543Z,12.10
2023-04-12T15:27:12.407Z,12.10
2023-04-12T15:30:01.965Z,12.00
2023-04-12T15:32:50.518Z,11.90
2023-04-12T15:35:39.005Z,11.90
2023-04-12T15:38:49.460Z,11.80
2023-04-12T15:41:43.796Z,11.80
2023-04-12T15:48:02.925Z,11.80
2023-04-12T15:50:53.875Z,11.70
2023-04-12T15:53:45.082Z,11.70
2023-04-12T16:14:25.253Z,11.50
2023-04-12T16:17:14.077Z,11.50
2023-04-12T16:20:06.264Z,11.40
2023-04-12T16:22:56.937Z,11.40
2023-04-12T16:25:46.024Z,11.40
2023-04-12T16:28:37.223Z,11.40
2023-04-12T16:31:31.209Z,11.30
2023-04-12T16:34:25.013Z,11.40
2023-04-12T16:37:19.136Z,11.40
2023-04-12T16:41:05.424Z,11.50
2023-04-12T16:44:06.572Z,11.60
2023-04-12T16:47:16.539Z,11.80
2023-04-12T16:50:25.104Z,11.90
2023-04-12T16:53:27.521Z,12.00
2023-04-12T16:56:25.198Z,12.00
2023-04-12T16:59:19.512Z,12.10
2023-04-12T17:02:10.768Z,12.10
2023-04-12T17:05:04.313Z,12.10
2023-04-12T17:07:58.017Z,12.10
2023-04-12T17:10:51.055Z,12.10
2023-04-12T17:13:41.095Z,12.10
2023-04-12T17:16:32.849Z,12.00
2023-04-12T17:19:23.180Z,11.90
2023-04-12T17:22:12.357Z,11.80
2023-04-12T17:25:02.185Z,11.80
2023-04-12T17:27:51.732Z,11.60
2023-04-12T17:30:41.252Z,11.60
2023-04-12T17:33:30.455Z,11.50
2023-04-12T17:36:22.241Z,11.50
2023-04-12T17:39:11.495Z,11.50
2023-04-12T17:42:00.390Z,11.40
2023-04-12T17:44:49.899Z,11.40
2023-04-12T17:47:39.006Z,11.40
2023-04-12T17:50:28.601Z,11.40
2023-04-12T17:53:18.896Z,11.40
2023-04-12T17:56:08.879Z,11.30
2023-04-12T18:00:31.535Z,11.30
2023-04-12T18:03:20.873Z,11.20
2023-04-12T18:06:09.877Z,11.30
2023-04-12T18:09:00.284Z,11.20
2023-04-12T18:15:55.278Z,11.20
2023-04-12T18:18:44.237Z,11.20
2023-04-12T18:21:34.131Z,11.20
2023-04-12T18:24:24.864Z,11.10
2023-04-12T18:27:14.277Z,11.10
2023-04-12T18:30:03.485Z,11.00
2023-04-12T18:32:53.255Z,11.00
2023-04-12T18:35:46.201Z,10.90
2023-04-12T18:38:35.709Z,10.90
2023-04-12T18:41:26.280Z,10.80
2023-04-12T18:44:15.595Z,10.80
2023-04-12T18:47:04.898Z,10.70
2023-04-12T18:49:54.081Z,10.70
2023-04-12T18:52:42.916Z,10.60
2023-04-12T18:55:31.590Z,10.50
2023-04-12T18:58:23.742Z,10.40
2023-04-12T19:01:20.713Z,10.30
2023-04-12T19:04:18.636Z,10.10
2023-04-12T19:07:14.093Z,10.00
2023-04-12T19:10:09.945Z,9.90
2023-04-12T19:12:59.329Z,9.80
2023-04-12T19:15:57.839Z,9.70
2023-04-12T19:18:50.813Z,9.60
2023-04-12T19:21:53.303Z,9.60
2023-04-12T19:24:43.920Z,9.50
2023-04-12T19:27:36.866Z,9.50
2023-04-12T19:30:27.130Z,9.40
2023-04-12T19:33:21.246Z,9.40
2023-04-12T19:36:37.560Z,9.30
2023-04-12T19:39:31.621Z,9.20
2023-04-12T19:42:21.841Z,9.10
2023-04-12T19:45:11.401Z,9.00
2023-04-12T19:48:04.091Z,8.90
2023-04-12T19:50:55.356Z,8.80
2023-04-12T19:53:49.200Z,8.70
2023-04-12T19:56:39.546Z,8.70
2023-04-12T19:59:30.987Z,8.60
2023-04-12T20:02:20.864Z,8.50
2023-04-12T20:05:10.684Z,8.40
2023-04-12T20:08:01.148Z,8.40
2023-04-12T20:10:50.419Z,8.30
2023-04-12T20:13:39.853Z,8.30
2023-04-12T20:16:28.582Z,8.20
2023-04-12T20:19:17.905Z,8.10
2023-04-12T20:22:07.046Z,8.10
2023-04-12T20:25:02.134Z,8.10
2023-04-12T20:27:52.743Z,8.00
2023-04-12T20:30:42.588Z,8.00
2023-04-12T20:33:31.142Z,7.90
2023-04-12T20:36:22.503Z,7.90
2023-04-12T20:39:11.537Z,7.90
2023-04-12T20:42:01.814Z,7.80
2023-04-12T20:44:50.890Z,7.80
2023-04-12T20:47:39.408Z,7.80
2023-04-12T20:50:30.374Z,7.80
2023-04-12T20:53:18.850Z,7.70
2023-04-12T20:56:08.215Z,7.60
2023-04-12T20:59:00.593Z,7.60
2023-04-12T21:01:49.386Z,7.50
2023-04-12T21:04:41.065Z,7.50
2023-04-12T21:07:29.965Z,7.50
2023-04-12T21:10:19.905Z,7.40
2023-04-12T21:13:08.561Z,7.30
2023-04-12T21:15:58.961Z,7.30
2023-04-12T21:18:47.442Z,7.30
2023-04-12T21:21:36.416Z,7.30
2023-04-12T21:24:24.844Z,7.30
2023-04-12T21:27:14.420Z,7.30
2023-04-12T21:30:05.367Z,7.30
2023-04-12T21:32:55.179Z,7.30
2023-04-12T21:35:45.177Z,7.30
2023-04-12T21:38:34.016Z,7.30
2023-04-12T21:41:23.665Z,7.30
2023-04-12T21:44:12.508Z,7.30
2023-04-12T21:47:01.018Z,7.30
2023-04-12T21:49:53.530Z,7.20
2023-04-12T21:52:43.975Z,7.20
2023-04-12T21:55:32.591Z,7.20
2023-04-12T21:58:21.113Z,7.20
2023-04-12T22:01:09.584Z,7.20
2023-04-12T22:03:58.288Z,7.20
2023-04-12T22:06:50.711Z,7.20
2023-04-12T22:09:39.838Z,7.20
2023-04-12T22:12:28.406Z,7.30
2023-04-12T22:15:17.208Z,7.30
2023-04-12T22:18:06.611Z,7.30
2023-04-12T22:20:55.278Z,7.40
2023-04-12T22:23:45.646Z,7.30
2023-04-12T22:26:35.388Z,7.40
2023-04-12T22:29:25.277Z,7.40
2023-04-12T22:32:13.984Z,7.40
2023-04-12T22:35:08.113Z,7.40
2023-04-12T22:37:57.510Z,7.40
2023-04-12T22:40:47.751Z,7.40
2023-04-12T22:43:42.041Z,7.30
2023-04-12T22:46:32.276Z,7.30
2023-04-12T22:49:27.982Z,7.30
2023-04-12T22:52:17.556Z,7.20
2023-04-12T22:55:07.898Z,7.20
2023-04-12T22:57:57.763Z,7.30
2023-04-12T23:00:49.149Z,7.30
2023-04-12T23:03:38.448Z,7.30
2023-04-12T23:06:27.652Z,7.30
2023-04-12T23:09:16.306Z,7.30
2023-04-12T23:12:07.412Z,7.30
2023-04-12T23:14:57.320Z,7.30
2023-04-12T23:17:45.813Z,7.30
2023-04-12T23:20:35.873Z,7.30
2023-04-12T23:23:24.642Z,7.20
2023-04-12T23:26:13.266Z,7.20
2023-04-12T23:29:03.487Z,7.20
2023-04-12T23:31:53.499Z,7.20
2023-04-12T23:34:41.986Z,7.20
2023-04-12T23:37:32.167Z,7.10
2023-04-12T23:40:20.757Z,7.10
2023-04-12T23:43:09.792Z,7.10
2023-04-12T23:45:58.639Z,7.10
2023-04-12T23:48:49.259Z,7.00
2023-04-12T23:51:37.825Z,7.00
2023-04-12T23:54:26.332Z,6.90
2023-04-12T23:57:15.829Z,6.90
